Forest fire From: 18-06-2018 11:00 Until: 19-06-2018 10:14 warning for: Forest fire Level: Yellow info button
suomi:
Metsäpalovaroitus on voimassa.

svenska:
Varning för skogsbrand gäller.

english:
A forest fire warning is in force. 


Thunder radar more information blitzortung!


Löydät sääaseman tiedot myös:

European Weather Network

Finland Weather Exchange

Weather Underground

AWEKAS



Weather Underground säähistoriasivu

Päivittäin yhteenveto Tammikuu 18, 2017 Yksiköt:  Molemmat    Englantilaiset   Metriset
« Edellinen Päivä
Seuraava Päivä »
Päivittäin Viikoittain Kuukausittain Vuosittain Mukautettu
  Korkea: Matala: Keskiarvo:
Lämpötila: TemperatureC °F /  -17.8 °C 0.3 °F /  -17.6 °C 0.8 °F /  -17.3 °C
Kastepiste: DewpointC °F /  -17.8 °C -0.4 °F /  -18 °C 0.3 °F /  -17.6 °C
Kosteus: Humidity % 94 % 95 %
Tuulen nopeus: WindSpeedKMH mph /  0 km/h - 8 mph /  12.9 km/h
Tuulenpuuska: WindSpeedGustKMH mph /  0 km/h - -
Tuuli:- - SSW
Ilmanpaine: PressurehPa in /  0 hPa 1011.7 in /  34256.2 hPa -
Sade: 0.3 in /  7.62 mm    
Historical Graphs
 
 
Taulukkotiedot Tammikuu 18, 2017
Aika Lämpötila Kastepiste Ilmanpaine Tuuli Tuulen nopeus Tuulenpuuska Kosteus Sademäärä (tunneittain)
TemperatureC °F /  -17.8 °C DewpointC °F /  -17.8 °C PressurehPa in /  0 hPa Calm     Humidity % HourlyPrecipMM in /  0 mm
00:00 0.3 °F /  -17.6 °C -0.4 °F /  -18 °C 1021.6 in /  34591.4 hPa SSW 8.0 mph /  12.9 km/h 27.4 mph /  44.1 km/h 95 % 0.0 in /  0 mm
00:15 0.4 °F /  -17.6 °C -0.3 °F /  -17.9 °C 1021.6 in /  34591.4 hPa SSW 8.0 mph /  12.9 km/h 22.5 mph /  36.2 km/h 95 % 0.0 in /  0 mm
00:30 0.4 °F /  -17.6 °C -0.3 °F /  -17.9 °C 1021.6 in /  34591.4 hPa SSW 6.4 mph /  10.3 km/h 16.1 mph /  25.9 km/h 95 % 0.0 in /  0 mm
00:45 0.5 °F /  -17.5 °C -0.2 °F /  -17.9 °C 1021.6 in /  34591.4 hPa SSW 6.4 mph /  10.3 km/h 16.1 mph /  25.9 km/h 95 % 0.0 in /  0 mm
01:00 0.5 °F /  -17.5 °C -0.2 °F /  -17.9 °C 1021.6 in /  34591.4 hPa SSW 6.4 mph /  10.3 km/h 17.7 mph /  28.5 km/h 95 % 0.0 in /  0 mm
01:15 0.6 °F /  -17.4 °C -0.2 °F /  -17.9 °C 1021.6 in /  34591.4 hPa SSW 8.0 mph /  12.9 km/h 17.7 mph /  28.5 km/h 95 % 0.0 in /  0 mm
01:30 0.6 °F /  -17.4 °C -0.2 °F /  -17.9 °C 1021.9 in /  34601.5 hPa SSW 6.4 mph /  10.3 km/h 16.1 mph /  25.9 km/h 95 % 0.0 in /  0 mm
01:45 0.6 °F /  -17.4 °C -0.1 °F /  -17.8 °C 1021.9 in /  34601.5 hPa SSW 6.4 mph /  10.3 km/h 14.5 mph /  23.3 km/h 95 % 0.0 in /  0 mm
02:00 0.6 °F /  -17.4 °C -0.1 °F /  -17.8 °C 1021.9 in /  34601.5 hPa SSW 8.0 mph /  12.9 km/h 17.7 mph /  28.5 km/h 95 % 0.0 in /  0 mm
02:15 0.7 °F /  -17.4 °C 0.0 °F /  -17.8 °C 1021.9 in /  34601.5 hPa SSW 8.0 mph /  12.9 km/h 19.3 mph /  31.1 km/h 95 % 0.0 in /  0 mm
02:30 0.7 °F /  -17.4 °C 0.0 °F /  -17.8 °C 1022.2 in /  34611.7 hPa SSW 8.0 mph /  12.9 km/h 19.3 mph /  31.1 km/h 95 % 0.0 in /  0 mm
02:45 0.7 °F /  -17.4 °C 0.1 °F /  -17.7 °C 1022.2 in /  34611.7 hPa SSW 8.0 mph /  12.9 km/h 19.3 mph /  31.1 km/h 96 % 0.0 in /  0 mm
03:00 0.7 °F /  -17.4 °C 0.1 °F /  -17.7 °C 1022.2 in /  34611.7 hPa SSW 4.8 mph /  7.7 km/h 11.3 mph /  18.2 km/h 96 % 0.0 in /  0 mm
03:15 0.7 °F /  -17.4 °C 0.1 °F /  -17.7 °C 1022.2 in /  34611.7 hPa SW 4.8 mph /  7.7 km/h 12.9 mph /  20.8 km/h 96 % 0.0 in /  0 mm
03:30 0.7 °F /  -17.4 °C 0.2 °F /  -17.7 °C 1021.9 in /  34601.5 hPa SSW 6.4 mph /  10.3 km/h 12.9 mph /  20.8 km/h 96 % 0.0 in /  0 mm
03:45 0.8 °F /  -17.3 °C 0.2 °F /  -17.7 °C 1021.9 in /  34601.5 hPa SSW 4.8 mph /  7.7 km/h 14.5 mph /  23.3 km/h 96 % 0.0 in /  0 mm
04:00 0.8 °F /  -17.3 °C 0.2 °F /  -17.7 °C 1021.9 in /  34601.5 hPa SSW 4.8 mph /  7.7 km/h 9.7 mph /  15.6 km/h 96 % 0.0 in /  0 mm
04:15 0.8 °F /  -17.3 °C 0.2 °F /  -17.7 °C 1022.2 in /  34611.7 hPa SSW 4.8 mph /  7.7 km/h 12.9 mph /  20.8 km/h 96 % 0.0 in /  0 mm
04:30 0.8 °F /  -17.3 °C 0.2 °F /  -17.7 °C 1021.9 in /  34601.5 hPa SSW 4.8 mph /  7.7 km/h 11.3 mph /  18.2 km/h 96 % 0.0 in /  0 mm
04:45 0.7 °F /  -17.4 °C 0.2 °F /  -17.7 °C 1021.9 in /  34601.5 hPa SSW 3.2 mph /  5.1 km/h 9.7 mph /  15.6 km/h 96 % 0.0 in /  0 mm
05:00 0.7 °F /  -17.4 °C 0.2 °F /  -17.7 °C 1021.9 in /  34601.5 hPa SSW 1.6 mph /  2.6 km/h 8.0 mph /  12.9 km/h 96 % 0.0 in /  0 mm
05:15 0.7 °F /  -17.4 °C 0.3 °F /  -17.6 °C 1022.2 in /  34611.7 hPa SSW 3.2 mph /  5.1 km/h 14.5 mph /  23.3 km/h 97 % 0.0 in /  0 mm
05:30 0.7 °F /  -17.4 °C 0.2 °F /  -17.7 °C 1021.9 in /  34601.5 hPa SSW 4.8 mph /  7.7 km/h 11.3 mph /  18.2 km/h 97 % 0.0 in /  0 mm
05:45 0.6 °F /  -17.4 °C 0.2 °F /  -17.7 °C 1021.9 in /  34601.5 hPa SSW 4.8 mph /  7.7 km/h 12.9 mph /  20.8 km/h 97 % 0.0 in /  0 mm
06:00 0.5 °F /  -17.5 °C 0.1 °F /  -17.7 °C 1021.6 in /  34591.4 hPa SSW 4.8 mph /  7.7 km/h 16.1 mph /  25.9 km/h 97 % 0.0 in /  0 mm
06:15 0.4 °F /  -17.6 °C 0.0 °F /  -17.8 °C 1021.6 in /  34591.4 hPa SW 3.2 mph /  5.1 km/h 11.3 mph /  18.2 km/h 97 % 0.0 in /  0 mm
06:30 0.4 °F /  -17.6 °C 0.0 °F /  -17.8 °C 1021.9 in /  34601.5 hPa SSW 4.8 mph /  7.7 km/h 9.7 mph /  15.6 km/h 97 % 0.0 in /  0 mm
06:45 0.4 °F /  -17.6 °C 0.0 °F /  -17.8 °C 1021.6 in /  34591.4 hPa SSW 4.8 mph /  7.7 km/h 12.9 mph /  20.8 km/h 97 % 0.0 in /  0 mm
07:00 0.4 °F /  -17.6 °C 0.0 °F /  -17.8 °C 1021.6 in /  34591.4 hPa SSW 3.2 mph /  5.1 km/h 16.1 mph /  25.9 km/h 97 % 0.0 in /  0 mm
07:15 0.4 °F /  -17.6 °C 0.0 °F /  -17.8 °C 1022.2 in /  34611.7 hPa SSW 1.6 mph /  2.6 km/h 6.4 mph /  10.3 km/h 97 % 0.0 in /  0 mm
07:30 0.4 °F /  -17.6 °C 0.0 °F /  -17.8 °C 1021.6 in /  34591.4 hPa SSW 4.8 mph /  7.7 km/h 16.1 mph /  25.9 km/h 97 % 0.0 in /  0 mm
07:45 0.4 °F /  -17.6 °C 0.0 °F /  -17.8 °C 1022.2 in /  34611.7 hPa SW 1.6 mph /  2.6 km/h 8.0 mph /  12.9 km/h 97 % 0.0 in /  0 mm
08:00 0.4 °F /  -17.6 °C 0.0 °F /  -17.8 °C 1021.6 in /  34591.4 hPa SSW 3.2 mph /  5.1 km/h 11.3 mph /  18.2 km/h 97 % 0.0 in /  0 mm
08:15 0.4 °F /  -17.6 °C 0.0 °F /  -17.8 °C 1021.9 in /  34601.5 hPa SW 3.2 mph /  5.1 km/h 8.0 mph /  12.9 km/h 97 % 0.0 in /  0 mm
08:30 0.4 °F /  -17.6 °C 0.0 °F /  -17.8 °C 1021.9 in /  34601.5 hPa SSW 3.2 mph /  5.1 km/h 8.0 mph /  12.9 km/h 97 % 0.0 in /  0 mm
08:45 0.4 °F /  -17.6 °C 0.0 °F /  -17.8 °C 1021.9 in /  34601.5 hPa SSW 4.8 mph /  7.7 km/h 8.0 mph /  12.9 km/h 97 % 0.0 in /  0 mm
09:00 0.5 °F /  -17.5 °C 0.1 °F /  -17.7 °C 1021.6 in /  34591.4 hPa SSW 3.2 mph /  5.1 km/h 8.0 mph /  12.9 km/h 97 % 0.0 in /  0 mm
09:15 0.5 °F /  -17.5 °C 0.1 °F /  -17.7 °C 1021.6 in /  34591.4 hPa South 1.6 mph /  2.6 km/h 8.0 mph /  12.9 km/h 97 % 0.0 in /  0 mm
09:30 0.5 °F /  -17.5 °C 0.1 °F /  -17.7 °C 1021.2 in /  34577.8 hPa SSW 3.2 mph /  5.1 km/h 11.3 mph /  18.2 km/h 97 % 0.0 in /  0 mm
09:45 0.6 °F /  -17.4 °C 0.1 °F /  -17.7 °C 1021.6 in /  34591.4 hPa SSW 3.2 mph /  5.1 km/h 9.7 mph /  15.6 km/h 97 % 0.0 in /  0 mm
10:00 0.5 °F /  -17.5 °C 0.1 °F /  -17.7 °C 1021.6 in /  34591.4 hPa SSW 4.8 mph /  7.7 km/h 16.1 mph /  25.9 km/h 97 % 0.0 in /  0 mm
10:15 0.5 °F /  -17.5 °C 0.1 °F /  -17.7 °C 1021.6 in /  34591.4 hPa SSW 6.4 mph /  10.3 km/h 16.1 mph /  25.9 km/h 97 % 0.0 in /  0 mm
10:30 0.6 °F /  -17.4 °C 0.1 °F /  -17.7 °C 1021.6 in /  34591.4 hPa SSW 6.4 mph /  10.3 km/h 12.9 mph /  20.8 km/h 97 % 0.0 in /  0 mm
10:45 0.6 °F /  -17.4 °C 0.2 °F /  -17.7 °C 1021.6 in /  34591.4 hPa SSW 4.8 mph /  7.7 km/h 14.5 mph /  23.3 km/h 97 % 0.0 in /  0 mm
11:00 0.6 °F /  -17.4 °C 0.1 °F /  -17.7 °C 1021.2 in /  34577.8 hPa SSW 8.0 mph /  12.9 km/h 16.1 mph /  25.9 km/h 97 % 0.0 in /  0 mm
11:15 0.6 °F /  -17.4 °C 0.1 °F /  -17.7 °C 1020.9 in /  34567.7 hPa SSW 6.4 mph /  10.3 km/h 14.5 mph /  23.3 km/h 97 % 0.0 in /  0 mm
11:30 0.6 °F /  -17.4 °C 0.1 °F /  -17.7 °C 1020.5 in /  34554.1 hPa SSW 8.0 mph /  12.9 km/h 16.1 mph /  25.9 km/h 97 % 0.0 in /  0 mm
11:45 0.6 °F /  -17.4 °C 0.2 °F /  -17.7 °C 1020.5 in /  34554.1 hPa SSW 6.4 mph /  10.3 km/h 16.1 mph /  25.9 km/h 97 % 0.0 in /  0 mm
12:00 0.7 °F /  -17.4 °C 0.4 °F /  -17.6 °C 1020.5 in /  34554.1 hPa SSW 6.4 mph /  10.3 km/h 16.1 mph /  25.9 km/h 98 % 0.0 in /  0 mm
12:15 0.7 °F /  -17.4 °C 0.4 °F /  -17.6 °C 1020.5 in /  34554.1 hPa SSW 8.0 mph /  12.9 km/h 17.7 mph /  28.5 km/h 98 % 0.0 in /  0 mm
12:30 0.8 °F /  -17.3 °C 0.5 °F /  -17.5 °C 1020.2 in /  34544 hPa SSW 6.4 mph /  10.3 km/h 16.1 mph /  25.9 km/h 98 % 0.0 in /  0 mm
12:45 0.8 °F /  -17.3 °C 0.6 °F /  -17.4 °C 1019.9 in /  34533.8 hPa SSW 8.0 mph /  12.9 km/h 14.5 mph /  23.3 km/h 98 % 0.0 in /  0 mm
13:00 0.9 °F /  -17.3 °C 0.5 °F /  -17.5 °C 1019.5 in /  34520.3 hPa SSW 6.4 mph /  10.3 km/h 16.1 mph /  25.9 km/h 97 % 0.0 in /  0 mm
13:15 1.0 °F /  -17.2 °C 0.7 °F /  -17.4 °C 1019.5 in /  34520.3 hPa SSW 6.4 mph /  10.3 km/h 16.1 mph /  25.9 km/h 98 % 0.0 in /  0 mm
13:30 1.1 °F /  -17.2 °C 0.7 °F /  -17.4 °C 1018.8 in /  34496.6 hPa SSW 6.4 mph /  10.3 km/h 14.5 mph /  23.3 km/h 97 % 0.0 in /  0 mm
13:45 1.2 °F /  -17.1 °C 0.7 °F /  -17.4 °C 1018.5 in /  34486.4 hPa SSW 8.0 mph /  12.9 km/h 16.1 mph /  25.9 km/h 97 % 0.0 in /  0 mm
14:00 1.2 °F /  -17.1 °C 0.8 °F /  -17.3 °C 1018.2 in /  34476.3 hPa SSW 9.7 mph /  15.6 km/h 17.7 mph /  28.5 km/h 97 % 0.0 in /  0 mm
14:15 1.3 °F /  -17.1 °C 0.9 °F /  -17.3 °C 1018.2 in /  34476.3 hPa SSW 6.4 mph /  10.3 km/h 12.9 mph /  20.8 km/h 97 % 0.0 in /  0 mm
14:30 1.4 °F /  -17 °C 0.8 °F /  -17.3 °C 1017.8 in /  34462.7 hPa SSW 9.7 mph /  15.6 km/h 20.9 mph /  33.6 km/h 96 % 0.0 in /  0 mm
14:45 1.4 °F /  -17 °C 0.9 °F /  -17.3 °C 1017.8 in /  34462.7 hPa SSW 9.7 mph /  15.6 km/h 25.7 mph /  41.4 km/h 96 % 0.0 in /  0 mm
15:00 1.4 °F /  -17 °C 0.7 °F /  -17.4 °C 1017.5 in /  34452.6 hPa SSW 8.0 mph /  12.9 km/h 17.7 mph /  28.5 km/h 95 % 0.0 in /  0 mm
15:15 1.5 °F /  -16.9 °C 0.8 °F /  -17.3 °C 1017.2 in /  34442.4 hPa SSW 9.7 mph /  15.6 km/h 20.9 mph /  33.6 km/h 95 % 0.0 in /  0 mm
15:30 1.5 °F /  -16.9 °C 0.8 °F /  -17.3 °C 1016.8 in /  34428.8 hPa SSW 8.0 mph /  12.9 km/h 20.9 mph /  33.6 km/h 95 % 0.0 in /  0 mm
15:45 1.5 °F /  -16.9 °C 0.8 °F /  -17.3 °C 1016.8 in /  34428.8 hPa SSW 9.7 mph /  15.6 km/h 20.9 mph /  33.6 km/h 95 % 0.0 in /  0 mm
16:00 1.4 °F /  -17 °C 0.7 °F /  -17.4 °C 1016.5 in /  34418.7 hPa SSW 11.3 mph /  18.2 km/h 19.3 mph /  31.1 km/h 95 % 0.0 in /  0 mm
16:15 1.4 °F /  -17 °C 0.7 °F /  -17.4 °C 1016.5 in /  34418.7 hPa SSW 12.9 mph /  20.8 km/h 22.5 mph /  36.2 km/h 95 % 0.0 in /  0 mm
16:30 1.4 °F /  -17 °C 0.5 °F /  -17.5 °C 1016.1 in /  34405.1 hPa SSW 9.7 mph /  15.6 km/h 20.9 mph /  33.6 km/h 94 % 0.0 in /  0 mm
16:45 1.3 °F /  -17.1 °C 0.6 °F /  -17.4 °C 1015.8 in /  34395 hPa SSW 9.7 mph /  15.6 km/h 19.3 mph /  31.1 km/h 95 % 0.0 in /  0 mm
17:00 1.3 °F /  -17.1 °C 0.6 °F /  -17.4 °C 1015.5 in /  34384.8 hPa SSW 11.3 mph /  18.2 km/h 30.6 mph /  49.2 km/h 95 % 0.0 in /  0 mm
17:15 1.3 °F /  -17.1 °C 0.6 °F /  -17.4 °C 1015.8 in /  34395 hPa SSW 12.9 mph /  20.8 km/h 30.6 mph /  49.2 km/h 95 % 0.0 in /  0 mm
17:45 1.0 °F /  -17.2 °C 0.3 °F /  -17.6 °C 1015.5 in /  34384.8 hPa SSW 9.7 mph /  15.6 km/h 27.4 mph /  44.1 km/h 95 % 0.0 in /  0 mm
18:00 0.9 °F /  -17.3 °C 0.2 °F /  -17.7 °C 1015.5 in /  34384.8 hPa SSW 9.7 mph /  15.6 km/h 27.4 mph /  44.1 km/h 95 % 0.0 in /  0 mm
18:15 0.8 °F /  -17.3 °C 0.1 °F /  -17.7 °C 1015.1 in /  34371.3 hPa SSW 12.9 mph /  20.8 km/h 32.2 mph /  51.8 km/h 95 % 0.0 in /  0 mm
18:30 0.6 °F /  -17.4 °C 0.0 °F /  -17.8 °C 1014.8 in /  34361.1 hPa SSW 14.5 mph /  23.3 km/h 30.6 mph /  49.2 km/h 96 % 0.0 in /  0 mm
18:45 0.5 °F /  -17.5 °C -0.1 °F /  -17.8 °C 1014.4 in /  34347.6 hPa SSW 12.9 mph /  20.8 km/h 41.8 mph /  67.3 km/h 96 % 0.0 in /  0 mm
19:00 0.4 °F /  -17.6 °C -0.1 °F /  -17.8 °C 1014.8 in /  34361.1 hPa SSW 12.9 mph /  20.8 km/h 30.6 mph /  49.2 km/h 96 % 0.0 in /  0 mm
19:15 0.4 °F /  -17.6 °C -0.1 °F /  -17.8 °C 1014.4 in /  34347.6 hPa SSW 12.9 mph /  20.8 km/h 30.6 mph /  49.2 km/h 96 % 0.0 in /  0 mm
19:30 0.5 °F /  -17.5 °C -0.1 °F /  -17.8 °C 1014.4 in /  34347.6 hPa SSW 14.5 mph /  23.3 km/h 38.6 mph /  62.1 km/h 96 % 0.0 in /  0 mm
19:45 0.6 °F /  -17.4 °C 0.2 °F /  -17.7 °C 1014.1 in /  34337.4 hPa SSW 14.5 mph /  23.3 km/h 30.6 mph /  49.2 km/h 97 % 0.0 in /  0 mm
20:00 0.7 °F /  -17.4 °C 0.2 °F /  -17.7 °C 1013.8 in /  34327.3 hPa SSW 14.5 mph /  23.3 km/h 27.4 mph /  44.1 km/h 97 % 0.0 in /  0 mm
20:15 0.7 °F /  -17.4 °C 0.2 °F /  -17.7 °C 1013.4 in /  34313.7 hPa SSW 12.9 mph /  20.8 km/h 27.4 mph /  44.1 km/h 97 % 0.0 in /  0 mm
20:30 0.7 °F /  -17.4 °C 0.3 °F /  -17.6 °C 1013.4 in /  34313.7 hPa SSW 11.3 mph /  18.2 km/h 27.4 mph /  44.1 km/h 97 % 0.0 in /  0 mm
20:45 0.8 °F /  -17.3 °C 0.4 °F /  -17.6 °C 1013.4 in /  34313.7 hPa SSW 14.5 mph /  23.3 km/h 30.6 mph /  49.2 km/h 97 % 0.3 in /  7.62 mm
21:00 0.8 °F /  -17.3 °C 0.4 °F /  -17.6 °C 1013.1 in /  34303.6 hPa SSW 14.5 mph /  23.3 km/h 37.0 mph /  59.5 km/h 97 % 0.3 in /  7.62 mm
21:15 0.8 °F /  -17.3 °C 0.4 °F /  -17.6 °C 1012.8 in /  34293.4 hPa SSW 11.3 mph /  18.2 km/h 25.7 mph /  41.4 km/h 97 % 0.3 in /  7.62 mm
21:30 0.8 °F /  -17.3 °C 0.4 °F /  -17.6 °C 1013.1 in /  34303.6 hPa SSW 11.3 mph /  18.2 km/h 22.5 mph /  36.2 km/h 97 % 0.3 in /  7.62 mm
21:45 0.9 °F /  -17.3 °C 0.5 °F /  -17.5 °C 1013.1 in /  34303.6 hPa SSW 14.5 mph /  23.3 km/h 27.4 mph /  44.1 km/h 97 % 0.0 in /  0 mm
22:00 0.9 °F /  -17.3 °C 0.5 °F /  -17.5 °C 1012.8 in /  34293.4 hPa SSW 12.9 mph /  20.8 km/h 30.6 mph /  49.2 km/h 97 % 0.0 in /  0 mm
22:15 1.0 °F /  -17.2 °C 0.6 °F /  -17.4 °C 1012.8 in /  34293.4 hPa SSW 11.3 mph /  18.2 km/h 25.7 mph /  41.4 km/h 97 % 0.0 in /  0 mm
22:30 1.1 °F /  -17.2 °C 0.6 °F /  -17.4 °C 1012.1 in /  34269.7 hPa SSW 12.9 mph /  20.8 km/h 37.0 mph /  59.5 km/h 97 % 0.0 in /  0 mm
22:45 1.1 °F /  -17.2 °C 0.5 °F /  -17.5 °C 1012.1 in /  34269.7 hPa SSW 12.9 mph /  20.8 km/h 27.4 mph /  44.1 km/h 96 % 0.0 in /  0 mm
23:00 1.1 °F /  -17.2 °C 0.5 °F /  -17.5 °C 1012.1 in /  34269.7 hPa SSW 14.5 mph /  23.3 km/h 37.0 mph /  59.5 km/h 96 % 0.0 in /  0 mm
23:15 1.1 °F /  -17.2 °C 0.5 °F /  -17.5 °C 1011.7 in /  34256.2 hPa SSW 12.9 mph /  20.8 km/h 32.2 mph /  51.8 km/h 96 % 0.0 in /  0 mm
23:30 1.2 °F /  -17.1 °C 0.6 °F /  -17.4 °C 1012.1 in /  34269.7 hPa SSW 14.5 mph /  23.3 km/h 29.0 mph /  46.7 km/h 96 % 0.0 in /  0 mm
23:45 1.2 °F /  -17.1 °C 0.5 °F /  -17.5 °C 1011.7 in /  34256.2 hPa SSW 12.9 mph /  20.8 km/h 25.7 mph /  41.4 km/h 95 % 0.0 in /  0 mm
Esan sääasema
Terveisin Weather Underground - 2.75 mb

Alkuperäinen skripti  Jim McMurry - jmcmurry@mwt.net Sovitettu myös templatelle  Wim van der Kuil - Leuven-Template.eu

Laitteet joita käytämme:

Sääasema
Davis VP2

Sääasemaohjelma
Cumulus

Sääaseman tietokone
Asus EeePC

Palveluntarjoaja
Suncomet

Davis VP2

Cumulus

Asus EeePC

Suncomet